Time;durP1;ratioP1;P1;durP2;ratioP2;P2;SDS_P1;SDS_P2;PMS_P1;PMS_P2;Temp;Humidity;BMP_temperature;BMP_pressure;BME280_temperature;BME280_humidity;BME280_pressure;Samples;Min_cycle;Max_cycle;Signal;HPM_P1;HPM_P2
2021/04/30 00:01:32;;;;;;;73.47;32.38;;;;;;;11.22;100.00;97223.69;4865713;29;20027;-84
2021/04/30 00:03:57;;;;;;;76.25;32.53;;;;;;;11.23;100.00;97217.34;4952195;28;20062;-84
2021/04/30 00:06:23;;;;;;;71.07;33.03;;;;;;;11.21;100.00;97219.28;4957678;28;20506;-83
2021/04/30 00:08:48;;;;;;;72.07;31.92;;;;;;;11.22;100.00;97229.91;4967196;28;20037;-84
2021/04/30 00:11:14;;;;;;;69.53;31.45;;;;;;;11.23;100.00;97220.88;4949610;28;20146;-85
2021/04/30 00:13:40;;;;;;;65.03;31.77;;;;;;;11.28;100.00;97226.78;4967201;28;20029;-85
2021/04/30 00:16:06;;;;;;;70.43;30.38;;;;;;;11.36;100.00;97245.84;4942819;28;20113;-85
2021/04/30 00:18:32;;;;;;;68.18;30.50;;;;;;;11.34;100.00;97250.47;4972090;28;20034;-85
2021/04/30 00:21:00;;;;;;;74.10;33.90;;;;;;;11.33;100.00;97264.81;4948648;28;20048;-85
2021/04/30 00:23:28;;;;;;;71.53;33.25;;;;;;;11.33;100.00;97256.78;4948346;28;20031;-85
2021/04/30 00:25:55;;;;;;;66.40;31.92;;;;;;;11.30;100.00;97262.34;4954172;28;20030;-84
2021/04/30 00:28:21;;;;;;;63.22;29.33;;;;;;;11.42;100.00;97257.94;4960378;28;20553;-86
2021/04/30 00:30:47;;;;;;;61.03;28.13;;;;;;;11.44;100.00;97264.06;4970214;28;20022;-86
2021/04/30 00:33:13;;;;;;;60.28;28.65;;;;;;;11.42;100.00;97260.63;4954643;28;20031;-86
2021/04/30 00:35:38;;;;;;;56.15;26.25;;;;;;;11.49;100.00;97255.69;4948954;28;20481;-86
2021/04/30 00:38:04;;;;;;;56.55;28.33;;;;;;;11.51;100.00;97264.47;4946262;28;20033;-85
2021/04/30 00:40:30;;;;;;;55.33;27.65;;;;;;;11.53;100.00;97263.44;4955924;28;20058;-86
2021/04/30 00:42:56;;;;;;;52.10;26.40;;;;;;;11.54;100.00;97254.41;4972982;28;20034;-85
2021/04/30 00:45:24;;;;;;;53.88;26.05;;;;;;;11.53;100.00;97268.78;4942262;28;20027;-85
2021/04/30 00:47:50;;;;;;;49.83;26.00;;;;;;;11.64;100.00;97270.69;4948704;28;20035;-85
2021/04/30 00:50:17;;;;;;;57.33;26.27;;;;;;;11.57;100.00;97253.34;4949074;28;20410;-85
2021/04/30 00:52:43;;;;;;;50.45;25.27;;;;;;;11.53;100.00;97273.28;4936140;29;20048;-85
2021/04/30 00:55:12;;;;;;;58.95;26.15;;;;;;;11.59;100.00;97272.84;4928879;29;20032;-84
2021/04/30 00:57:47;;;;;;;55.15;26.83;;;;;;;11.53;100.00;97262.56;4955685;28;20062;-86
2021/04/30 01:00:13;;;;;;;57.10;25.77;;;;;;;11.59;100.00;97263.00;4940514;28;20019;-85
2021/04/30 01:02:40;;;;;;;57.55;26.63;;;;;;;11.62;100.00;97267.28;4940163;28;20066;-85
2021/04/30 01:05:07;;;;;;;56.55;27.45;;;;;;;11.63;100.00;97266.31;4956811;28;20055;-85
2021/04/30 01:07:33;;;;;;;55.80;27.80;;;;;;;11.66;100.00;97295.56;4940846;28;20033;-85
2021/04/30 01:10:00;;;;;;;65.35;30.35;;;;;;;11.57;100.00;97288.16;4940752;28;20030;-85
2021/04/30 01:12:26;;;;;;;67.68;30.48;;;;;;;11.39;100.00;97259.03;4940691;28;20031;-85
2021/04/30 01:14:52;;;;;;;68.45;31.02;;;;;;;11.60;100.00;97287.94;4940470;28;20785;-85
2021/04/30 01:17:17;;;;;;;64.60;31.73;;;;;;;11.58;100.00;97292.56;4940476;28;20022;-85
2021/04/30 01:19:43;;;;;;;62.67;29.83;;;;;;;11.52;100.00;97274.22;4956637;28;20520;-85
2021/04/30 01:22:09;;;;;;;61.35;28.25;;;;;;;11.61;100.00;97293.19;4936483;29;20172;-85
2021/04/30 01:24:35;;;;;;;65.55;29.73;;;;;;;11.51;100.00;97269.84;4954463;28;20491;-84
2021/04/30 01:27:01;;;;;;;65.35;29.00;;;;;;;11.54;100.00;97274.97;4934874;29;20034;-84
2021/04/30 01:29:26;;;;;;;57.95;27.73;;;;;;;11.60;100.00;97301.34;4930475;29;20027;-84
2021/04/30 01:31:52;;;;;;;58.25;28.70;;;;;;;11.62;100.00;97289.56;4938578;29;20499;-85
2021/04/30 01:34:42;;;;;;;58.42;28.95;;;;;;;11.49;100.00;97272.63;4945932;28;20049;-85
2021/04/30 01:37:08;;;;;;;61.90;28.90;;;;;;;11.47;100.00;97265.69;4956858;28;20018;-84
2021/04/30 01:39:34;;;;;;;62.50;29.55;;;;;;;11.56;100.00;97289.13;4957148;28;20023;-84
2021/04/30 01:41:59;;;;;;;63.25;29.35;;;;;;;11.58;100.00;97287.19;4940761;28;20097;-84
2021/04/30 01:44:25;;;;;;;62.00;29.13;;;;;;;11.55;100.00;97293.63;4943137;28;20035;-83
2021/04/30 01:46:51;;;;;;;65.00;29.65;;;;;;;11.53;100.00;97279.50;4940575;28;20034;-84
2021/04/30 01:49:16;;;;;;;61.55;28.90;;;;;;;11.57;100.00;97285.47;4944778;28;20015;-84
2021/04/30 01:51:42;;;;;;;61.22;27.90;;;;;;;11.60;100.00;97285.25;4945951;28;20438;-84
2021/04/30 01:54:07;;;;;;;58.53;28.17;;;;;;;11.62;100.00;97302.09;4940474;28;20037;-84
2021/04/30 01:56:33;;;;;;;78.93;35.72;;;;;;;11.54;100.00;97291.03;4948665;28;20042;-84
2021/04/30 01:58:59;;;;;;;72.88;32.58;;;;;;;11.54;100.00;97291.03;4951256;28;20030;-83
2021/04/30 02:01:25;;;;;;;64.97;30.33;;;;;;;11.44;100.00;97275.63;4932212;28;20421;-84
2021/04/30 02:03:51;;;;;;;63.42;28.58;;;;;;;11.46;100.00;97286.25;4936859;29;20094;-83
2021/04/30 02:06:17;;;;;;;62.33;28.75;;;;;;;11.44;100.00;97290.84;4955798;28;20034;-83
2021/04/30 02:08:42;;;;;;;59.40;27.92;;;;;;;11.37;100.00;97289.56;4943612;28;20058;-83
2021/04/30 02:11:08;;;;;;;58.97;27.63;;;;;;;11.29;100.00;97281.19;4921704;29;20093;-84
2021/04/30 02:13:34;;;;;;;63.13;28.63;;;;;;;11.30;100.00;97297.16;4936387;28;20037;-84
2021/04/30 02:16:00;;;;;;;60.85;29.13;;;;;;;11.28;100.00;97301.78;4938128;28;20031;-84
2021/04/30 02:18:25;;;;;;;63.47;28.85;;;;;;;11.23;100.00;97301.22;4928110;28;20038;-84
2021/04/30 02:20:51;;;;;;;60.08;29.48;;;;;;;11.21;100.00;97292.44;4938677;28;20487;-84
2021/04/30 02:23:17;;;;;;;64.60;29.65;;;;;;;11.17;100.00;97282.88;4955802;28;20089;-84
2021/04/30 02:25:43;;;;;;;66.68;30.83;;;;;;;11.17;100.00;97298.94;4951850;28;20058;-84
2021/04/30 02:28:08;;;;;;;69.18;29.63;;;;;;;11.17;100.00;97298.94;4937408;28;20039;-84
2021/04/30 02:30:37;;;;;;;66.13;30.15;;;;;;;11.13;100.00;97310.84;4935404;28;20018;-84
2021/04/30 02:33:03;;;;;;;63.88;29.88;;;;;;;11.09;100.00;97295.09;4943927;28;20454;-84
2021/04/30 02:35:40;;;;;;;66.20;29.77;;;;;;;11.12;100.00;97317.16;4931481;28;20113;-84
2021/04/30 02:38:08;;;;;;;61.65;28.30;;;;;;;11.12;100.00;97311.81;4937634;28;20023;-83
2021/04/30 02:40:35;;;;;;;63.22;29.23;;;;;;;11.06;100.00;97301.50;4934863;28;20031;-84
2021/04/30 02:43:04;;;;;;;60.00;27.60;;;;;;;11.12;100.00;97303.78;4939428;28;20066;-84
2021/04/30 02:45:30;;;;;;;73.40;29.30;;;;;;;11.06;100.00;97314.88;4939736;28;20398;-84
2021/04/30 02:47:56;;;;;;;67.35;29.80;;;;;;;11.01;100.00;97309.00;4928694;28;20071;-84
2021/04/30 02:50:28;;;;;;;60.70;29.25;;;;;;;11.08;100.00;97326.34;4938134;28;20054;-85
2021/04/30 02:52:54;;;;;;;71.90;30.60;;;;;;;11.13;100.00;97318.88;4925431;28;20483;-85
2021/04/30 02:55:20;;;;;;;55.88;27.55;;;;;;;11.09;100.00;97309.34;4972643;28;20031;-83
2021/04/30 02:57:55;;;;;;;60.92;28.48;;;;;;;11.07;100.00;97311.28;4942020;28;20066;-83
2021/04/30 03:00:34;;;;;;;76.60;30.08;;;;;;;11.08;100.00;97321.00;4963506;28;20023;-83
2021/04/30 03:03:00;;;;;;;65.32;28.70;;;;;;;11.18;100.00;97334.63;4948031;28;20113;-83
2021/04/30 03:05:26;;;;;;;67.88;30.20;;;;;;;11.04;100.00;97310.59;4945774;28;20027;-83
2021/04/30 03:08:19;;;;;;;76.30;30.75;;;;;;;10.94;100.00;97299.66;4952816;28;20061;-83
2021/04/30 03:10:44;;;;;;;60.95;29.33;;;;;;;11.09;100.00;97328.06;4936014;29;20031;-84
2021/04/30 03:13:10;;;;;;;68.85;30.65;;;;;;;11.14;100.00;97346.47;4939894;28;21688;-83
2021/04/30 03:15:35;;;;;;;68.38;31.48;;;;;;;11.18;100.00;97343.50;4943166;28;20046;-83
2021/04/30 03:18:01;;;;;;;75.10;31.45;;;;;;;11.24;100.00;97345.78;4953610;28;20482;-84
2021/04/30 03:20:27;;;;;;;64.28;29.92;;;;;;;11.23;100.00;97357.44;4942318;28;20023;-84
2021/04/30 03:22:52;;;;;;;68.40;31.23;;;;;;;11.22;100.00;97355.72;4950538;28;20034;-84
2021/04/30 03:25:18;;;;;;;64.88;30.60;;;;;;;11.25;100.00;97358.19;4934572;28;20483;-85
2021/04/30 03:27:44;;;;;;;65.45;29.90;;;;;;;11.28;100.00;97376.75;4943311;28;20414;-85
2021/04/30 03:30:11;;;;;;;71.88;31.00;;;;;;;11.31;100.00;97375.66;4943314;28;20106;-84
2021/04/30 03:32:37;;;;;;;63.53;29.35;;;;;;;11.38;100.00;97377.81;4934757;28;20031;-85
2021/04/30 03:35:04;;;;;;;57.15;26.88;;;;;;;11.41;100.00;97377.59;4933093;28;20391;-83
2021/04/30 03:37:29;;;;;;;66.15;30.13;;;;;;;11.35;100.00;97369.97;4965542;28;20023;-83
2021/04/30 03:39:55;;;;;;;67.60;27.95;;;;;;;11.49;100.00;97385.13;4962539;28;20036;-83
2021/04/30 03:42:21;;;;;;;58.95;29.13;;;;;;;11.47;100.00;97380.84;4942655;28;20031;-82
2021/04/30 03:44:46;;;;;;;70.00;28.60;;;;;;;11.44;100.00;97376.56;4928646;29;20019;-84
2021/04/30 03:47:12;;;;;;;64.40;28.85;;;;;;;11.52;100.00;97386.72;4939377;28;20027;-84
2021/04/30 03:49:38;;;;;;;64.13;31.25;;;;;;;11.50;100.00;97383.31;4958464;28;20041;-85
2021/04/30 03:52:04;;;;;;;73.78;30.40;;;;;;;11.55;100.00;97383.84;4949905;28;20133;-85
2021/04/30 03:54:30;;;;;;;66.30;29.10;;;;;;;11.56;100.00;97389.13;4941418;28;20065;-84
2021/04/30 03:56:56;;;;;;;75.05;28.90;;;;;;;11.61;100.00;97394.13;4941269;28;20034;-85
2021/04/30 03:59:21;;;;;;;74.90;31.55;;;;;;;11.69;100.00;97402.53;4928015;28;20030;-84
2021/04/30 04:01:47;;;;;;;62.60;28.50;;;;;;;11.78;100.00;97394.72;4960691;28;20028;-84
2021/04/30 04:04:12;;;;;;;74.88;32.78;;;;;;;11.73;100.00;97396.88;4950240;28;20054;-84
2021/04/30 04:06:44;;;;;;;67.90;31.52;;;;;;;11.77;100.00;97373.41;4958441;28;20085;-83
2021/04/30 04:09:09;;;;;;;62.08;29.75;;;;;;;12.10;100.00;97413.06;4947438;28;20038;-85
2021/04/30 04:12:43;;;;;;;63.88;31.73;;;;;;;11.96;100.00;97384.56;4928346;28;20049;-84
2021/04/30 04:14:44;;;;;;;64.72;31.50;;;;;;;12.07;100.00;97418.66;4958078;28;20039;-82
2021/04/30 04:17:25;;;;;;;76.60;32.15;;;;;;;12.13;100.00;97435.16;4958341;28;20393;-82
2021/04/30 04:19:51;;;;;;;65.45;29.70;;;;;;;12.19;100.00;97428.50;4942051;28;20043;-83
2021/04/30 04:22:19;;;;;;;67.93;29.73;;;;;;;12.23;100.00;97438.06;4927108;28;20049;-83
2021/04/30 04:24:45;;;;;;;99.13;29.77;;;;;;;12.32;100.00;97445.47;4955289;28;20063;-84
2021/04/30 04:27:11;;;;;;;57.28;29.63;;;;;;;12.38;100.00;97440.53;4943082;28;20027;-84
2021/04/30 04:29:37;;;;;;;59.60;27.95;;;;;;;12.47;100.00;97445.22;4933951;28;20038;-84
2021/04/30 04:32:25;;;;;;;73.72;30.92;;;;;;;12.44;100.00;97436.53;4936431;29;20065;-84
2021/04/30 04:34:50;;;;;;;93.80;45.58;;;;;;;12.62;100.00;97445.09;4934108;29;20062;-82
2021/04/30 04:37:16;;;;;;;73.80;31.65;;;;;;;12.71;100.00;97455.16;4934455;28;20050;-83
2021/04/30 04:39:41;;;;;;;92.95;30.05;;;;;;;12.82;100.00;97466.00;4938567;28;20027;-83
2021/04/30 04:42:07;;;;;;;118.82;27.98;;;;;;;12.81;100.00;97465.16;4952552;28;20062;-83
2021/04/30 04:44:33;;;;;;;129.57;42.65;;;;;;;12.85;100.00;97466.66;4940911;28;20110;-83
2021/04/30 04:46:59;;;;;;;89.35;33.42;;;;;;;12.92;100.00;97465.22;4943333;28;20065;-83
2021/04/30 04:49:28;;;;;;;73.28;30.00;;;;;;;13.05;100.00;97457.97;4933968;28;20395;-84
2021/04/30 04:51:54;;;;;;;104.18;31.05;;;;;;;13.25;100.00;97479.88;4968475;28;20143;-84
2021/04/30 04:54:21;;;;;;;101.28;27.17;;;;;;;13.31;100.00;97476.72;4920492;28;20495;-84
2021/04/30 04:56:47;;;;;;;129.95;26.70;;;;;;;13.44;100.00;97489.13;4956437;28;20015;-84
2021/04/30 04:59:13;;;;;;;57.83;26.00;;;;;;;13.55;100.00;97489.19;4950988;28;20033;-84
2021/04/30 05:01:39;;;;;;;57.42;27.25;;;;;;;13.47;100.00;97462.03;4932822;28;20039;-84
2021/04/30 05:04:04;;;;;;;58.38;29.27;;;;;;;13.86;100.00;97477.00;4976584;28;20461;-84
2021/04/30 05:06:30;;;;;;;49.72;25.02;;;;;;;14.16;100.00;97465.69;4933104;28;20042;-84
2021/04/30 05:09:14;;;;;;;47.95;25.55;;;;;;;14.50;99.95;97480.09;4935701;29;20027;-84
2021/04/30 05:11:40;;;;;;;64.82;28.42;;;;;;;14.64;97.88;97477.19;4963350;28;20026;-84
2021/04/30 05:14:06;;;;;;;66.82;31.35;;;;;;;14.53;97.49;97461.00;4933859;29;20031;-84
2021/04/30 05:16:32;;;;;;;73.30;32.13;;;;;;;14.61;97.41;97480.97;4941838;28;20039;-84
2021/04/30 05:18:58;;;;;;;60.03;30.02;;;;;;;14.81;96.70;97486.59;4946442;28;20041;-83
2021/04/30 05:21:23;;;;;;;69.85;28.88;;;;;;;14.63;96.04;97456.63;4940375;28;20606;-83
2021/04/30 05:27:57;;;;;;;55.35;28.45;;;;;;;15.23;93.70;97493.91;4967390;28;20498;-83
2021/04/30 05:30:26;;;;;;;55.15;27.92;;;;;;;15.25;92.45;97491.97;4951276;28;20027;-84
2021/04/30 05:32:51;;;;;;;61.85;29.00;;;;;;;15.31;91.85;97469.03;4941254;28;20046;-84
2021/04/30 05:35:17;;;;;;;95.72;43.88;;;;;;;14.91;93.31;97471.44;4954188;28;20024;-84
2021/04/30 05:37:43;;;;;;;82.85;39.50;;;;;;;14.63;96.04;97481.72;4956166;28;20037;-83
2021/04/30 05:40:09;;;;;;;83.07;39.63;;;;;;;14.35;98.52;97487.53;4931327;29;20114;-83
2021/04/30 05:42:34;;;;;;;79.07;39.53;;;;;;;14.31;99.34;97483.34;4956510;28;20113;-81
2021/04/30 05:45:00;;;;;;;84.30;38.85;;;;;;;14.09;100.00;97470.69;4949129;28;20490;-83
2021/04/30 05:47:25;;;;;;;107.63;44.85;;;;;;;14.10;100.00;97468.88;4939102;28;20034;-83
2021/04/30 05:49:52;;;;;;;99.93;47.40;;;;;;;13.84;100.00;97456.59;4963837;28;20061;-83
2021/04/30 05:52:17;;;;;;;97.10;47.10;;;;;;;14.05;100.00;97454.94;4937865;28;20518;-82
2021/04/30 05:54:46;;;;;;;98.63;46.75;;;;;;;14.21;100.00;97470.75;4931301;29;20031;-83
2021/04/30 05:57:12;;;;;;;106.97;45.80;;;;;;;14.38;100.00;97473.00;4925654;28;20022;-83
2021/04/30 05:59:37;;;;;;;78.05;36.55;;;;;;;14.45;100.00;97471.53;4939856;28;20113;-81
2021/04/30 06:02:03;;;;;;;64.93;31.13;;;;;;;14.55;99.67;97473.38;4953827;29;20023;-84
2021/04/30 06:04:29;;;;;;;77.35;36.38;;;;;;;14.32;100.00;97468.91;4955452;28;20026;-86
2021/04/30 06:06:55;;;;;;;79.60;35.63;;;;;;;14.34;100.00;97476.88;4940483;28;20126;-83
2021/04/30 06:09:20;;;;;;;72.18;35.05;;;;;;;14.44;100.00;97484.13;4939269;28;20030;-83
2021/04/30 06:11:46;;;;;;;82.15;38.03;;;;;;;15.13;96.45;97483.00;4941256;28;20491;-83
2021/04/30 06:14:16;;;;;;;84.63;41.42;;;;;;;17.28;84.75;97494.19;4939127;28;20490;-79
2021/04/30 06:16:41;;;;;;;80.85;39.92;;;;;;;19.00;75.02;97506.03;4938996;28;20039;-76
2021/04/30 06:19:07;;;;;;;92.20;41.03;;;;;;;20.43;68.09;97492.56;4944362;29;20042;-77
2021/04/30 06:21:33;;;;;;;77.50;38.60;;;;;;;21.72;62.46;97490.59;4928436;29;20127;-76
2021/04/30 06:24:01;;;;;;;75.90;38.05;;;;;;;22.28;58.21;97503.53;4946221;28;20038;-76
2021/04/30 06:26:26;;;;;;;79.20;37.95;;;;;;;23.21;55.22;97497.50;4954885;28;20518;-76
2021/04/30 06:28:52;;;;;;;64.55;31.58;;;;;;;24.87;50.01;97497.09;4943057;28;20061;-74
2021/04/30 06:31:17;;;;;;;58.35;30.55;;;;;;;25.96;46.65;97498.09;4972724;28;20537;-74
2021/04/30 06:33:43;;;;;;;51.75;28.23;;;;;;;26.65;43.69;97510.25;4931775;29;20513;-74
2021/04/30 06:36:09;;;;;;;42.35;26.52;;;;;;;26.62;43.68;97520.78;4954850;28;20042;-75
2021/04/30 06:38:37;;;;;;;41.95;24.95;;;;;;;25.50;45.05;97507.59;4945798;29;20065;-75
2021/04/30 06:41:02;;;;;;;39.00;23.05;;;;;;;26.19;45.09;97511.66;4932203;28;20498;-75
2021/04/30 06:43:28;;;;;;;33.03;22.00;;;;;;;27.34;42.31;97522.28;4938752;28;20039;-76
2021/04/30 06:45:53;;;;;;;33.80;21.55;;;;;;;27.84;41.16;97514.78;4930849;28;20740;-75
2021/04/30 06:48:19;;;;;;;37.88;24.90;;;;;;;28.04;40.56;97532.22;4938657;28;20037;-75
2021/04/30 06:50:44;;;;;;;47.50;29.88;;;;;;;28.15;40.39;97522.56;4966467;28;20026;-75
2021/04/30 06:53:10;;;;;;;34.42;23.98;;;;;;;28.50;38.79;97536.00;4934250;28;20086;-75
2021/04/30 06:55:35;;;;;;;42.97;29.63;;;;;;;28.72;38.94;97538.63;4936601;28;20096;-75
2021/04/30 06:58:01;;;;;;;35.25;22.95;;;;;;;29.14;38.14;97532.72;4928901;28;20039;-75
2021/04/30 07:00:27;;;;;;;39.95;20.55;;;;;;;28.95;38.08;97533.56;4945686;28;20035;-75
2021/04/30 07:02:52;;;;;;;43.70;25.25;;;;;;;29.01;38.05;97539.06;4936898;28;20034;-75
2021/04/30 07:05:18;;;;;;;33.97;20.50;;;;;;;29.75;36.67;97526.97;4931325;29;20028;-74
2021/04/30 07:07:43;;;;;;;33.33;21.15;;;;;;;29.59;37.69;97522.75;4942131;28;20058;-75
2021/04/30 07:10:10;;;;;;;32.13;20.13;;;;;;;28.97;37.97;97510.28;4952927;28;20034;-74
2021/04/30 07:12:39;;;;;;;32.15;20.23;;;;;;;29.66;37.13;97511.69;4952540;28;20043;-76
2021/04/30 07:15:08;;;;;;;30.23;19.60;;;;;;;30.26;36.73;97511.31;4952439;28;20491;-75
2021/04/30 07:17:35;;;;;;;37.40;19.90;;;;;;;30.96;36.00;97502.00;4952591;28;20101;-74
2021/04/30 07:20:00;;;;;;;39.78;20.48;;;;;;;30.60;37.27;97508.16;4924633;28;20030;-75
2021/04/30 07:22:26;;;;;;;33.50;22.15;;;;;;;29.93;37.08;97505.91;4938098;28;20038;-75
2021/04/30 07:24:52;;;;;;;34.08;20.05;;;;;;;31.05;35.82;97510.84;4932086;28;20037;-77
2021/04/30 07:27:18;;;;;;;35.22;21.75;;;;;;;31.26;35.33;97498.53;4952519;28;20034;-74
2021/04/30 07:29:44;;;;;;;39.20;21.85;;;;;;;31.19;35.04;97500.53;4952670;28;20787;-77
2021/04/30 07:32:10;;;;;;;53.30;27.00;;;;;;;32.25;34.55;97501.97;4936630;28;20027;-76
2021/04/30 07:34:35;;;;;;;31.83;21.13;;;;;;;32.82;32.21;97489.47;4941896;29;20039;-74
2021/04/30 07:37:01;;;;;;;36.13;20.35;;;;;;;32.12;34.24;97486.34;4935794;28;20034;-74
2021/04/30 07:39:43;;;;;;;37.25;20.33;;;;;;;33.23;32.60;97470.00;4936194;28;20070;-75
2021/04/30 07:42:09;;;;;;;36.13;20.52;;;;;;;34.13;32.62;97501.00;4952394;28;20151;-76
2021/04/30 07:44:38;;;;;;;37.75;20.63;;;;;;;33.65;32.23;97495.75;4935337;28;20045;-76
2021/04/30 07:47:04;;;;;;;37.30;19.27;;;;;;;34.08;32.10;97497.25;4935098;28;20406;-76
2021/04/30 07:49:31;;;;;;;30.42;18.95;;;;;;;33.71;32.20;97489.22;4935394;28;20027;-76
2021/04/30 07:51:56;;;;;;;26.20;18.67;;;;;;;33.75;32.38;97495.13;4951788;28;20105;-76
2021/04/30 07:54:22;;;;;;;34.13;20.65;;;;;;;33.86;32.34;97482.31;4934422;28;20483;-76
2021/04/30 07:56:49;;;;;;;36.75;20.10;;;;;;;34.02;32.19;97490.75;4928637;28;20482;-75
2021/04/30 07:59:17;;;;;;;32.53;19.70;;;;;;;34.94;30.62;97507.34;4939303;28;20469;-77
2021/04/30 08:01:43;;;;;;;26.38;17.75;;;;;;;35.10;29.76;97509.34;4939220;28;20030;-76
2021/04/30 08:04:08;;;;;;;26.35;17.20;;;;;;;35.83;29.22;97501.66;4938599;28;20031;-76
2021/04/30 08:06:34;;;;;;;30.52;17.27;;;;;;;35.26;30.63;97495.44;4939328;28;20034;-75
2021/04/30 08:09:00;;;;;;;31.88;17.52;;;;;;;35.52;29.58;97493.91;4940726;28;20030;-77
2021/04/30 08:14:11;;;;;;;26.83;14.68;;;;;;;36.00;28.45;97484.03;4957077;28;20046;-76
2021/04/30 08:16:38;;;;;;;27.27;13.80;;;;;;;36.32;28.60;97482.28;4936881;28;20023;-74
2021/04/30 08:19:04;;;;;;;19.77;12.43;;;;;;;37.21;27.64;97485.47;4954229;28;20035;-75
2021/04/30 08:21:31;;;;;;;34.97;13.73;;;;;;;36.60;27.43;97481.22;4954863;28;20078;-77
2021/04/30 08:23:56;;;;;;;20.95;11.90;;;;;;;36.63;27.28;97470.41;4954719;28;20038;-75
2021/04/30 08:26:22;;;;;;;22.92;10.30;;;;;;;37.08;26.12;97471.97;4938668;28;20027;-84
2021/04/30 08:28:49;;;;;;;22.38;11.20;;;;;;;36.90;26.44;97473.16;4955060;28;20077;-83
2021/04/30 08:31:14;;;;;;;22.45;9.85;;;;;;;37.59;24.91;97465.72;4938333;28;20027;-84
2021/04/30 08:33:40;;;;;;;22.63;9.25;;;;;;;38.02;26.14;97472.16;4954701;28;20050;-84
2021/04/30 08:36:06;;;;;;;19.02;8.80;;;;;;;38.27;25.31;97461.09;4939161;28;20027;-83
2021/04/30 08:38:36;;;;;;;21.67;10.90;;;;;;;38.69;24.94;97447.81;4928234;28;20046;-83
2021/04/30 08:41:02;;;;;;;52.87;15.70;;;;;;;39.36;24.23;97441.19;4940304;28;20097;-84
2021/04/30 08:43:28;;;;;;;27.20;9.82;;;;;;;40.49;21.43;97439.47;4938468;28;20038;-83
2021/04/30 08:46:03;;;;;;;10.75;6.53;;;;;;;39.20;23.80;97439.47;4939368;28;20026;-84
2021/04/30 08:48:41;;;;;;;14.50;5.93;;;;;;;38.92;23.85;97396.94;4940146;28;20090;-83
2021/04/30 08:51:07;;;;;;;16.05;6.35;;;;;;;37.16;23.40;97373.81;4938245;28;20050;-84
2021/04/30 08:53:33;;;;;;;17.80;5.20;;;;;;;37.76;24.28;97410.50;4950865;28;20030;-84
2021/04/30 08:56:02;;;;;;;10.60;4.63;;;;;;;38.66;21.40;97394.38;4959139;28;20029;-84
2021/04/30 08:58:28;;;;;;;8.13;3.80;;;;;;;39.53;19.97;97410.91;4959293;28;20034;-82
2021/04/30 09:00:54;;;;;;;12.20;3.75;;;;;;;40.23;17.83;97397.81;4944077;28;20026;-83
2021/04/30 09:03:20;;;;;;;15.43;6.35;;;;;;;40.37;17.65;97391.28;4957076;28;20394;-84
2021/04/30 09:05:48;;;;;;;10.10;3.53;;;;;;;40.14;18.68;97399.56;4962948;28;20027;-83
2021/04/30 09:08:14;;;;;;;11.00;3.60;;;;;;;40.28;18.32;97392.19;4937862;28;20031;-83
2021/04/30 09:10:42;;;;;;;13.07;3.45;;;;;;;41.13;19.00;97398.38;4946070;28;20402;-83
2021/04/30 09:13:12;;;;;;;14.35;6.40;;;;;;;40.86;19.02;97396.88;4940515;28;20030;-83
2021/04/30 09:15:40;;;;;;;8.83;2.87;;;;;;;40.55;16.79;97387.00;4939958;28;20518;-83
2021/04/30 09:18:25;;;;;;;12.98;2.70;;;;;;;40.40;17.09;97375.84;4943886;28;20033;-84
2021/04/30 09:20:51;;;;;;;15.45;3.83;;;;;;;40.80;17.45;97366.31;4948985;28;20030;-83
2021/04/30 09:23:38;;;;;;;11.45;3.13;;;;;;;41.24;17.33;97371.88;4942268;28;20117;-85
2021/04/30 09:26:24;;;;;;;11.10;3.10;;;;;;;41.75;16.78;97372.22;4948128;28;20034;-83
2021/04/30 09:29:01;;;;;;;10.60;2.55;;;;;;;41.98;15.78;97362.94;4939993;28;20530;-82
2021/04/30 09:31:41;;;;;;;9.77;2.70;;;;;;;41.71;15.34;97357.91;4968220;28;20109;-83
2021/04/30 09:34:21;;;;;;;7.32;2.20;;;;;;;42.29;14.37;97350.19;4954162;28;20054;-83
2021/04/30 09:37:19;;;;;;;9.73;2.50;;;;;;;41.95;14.97;97350.34;4961607;28;20038;-83
2021/04/30 09:39:48;;;;;;;10.60;3.17;;;;;;;42.83;16.63;97360.06;4947241;28;20038;-83
2021/04/30 09:42:16;;;;;;;11.27;2.67;;;;;;;43.06;14.45;97350.69;4965137;28;20033;-85
2021/04/30 09:44:44;;;;;;;14.02;2.55;;;;;;;42.73;14.98;97324.50;4946042;28;20026;-83
2021/04/30 09:47:25;;;;;;;8.18;2.60;;;;;;;43.52;14.17;97347.91;4968141;28;20030;-83
2021/04/30 09:49:56;;;;;;;11.38;2.75;;;;;;;44.39;14.68;97359.09;4955850;28;20549;-82
2021/04/30 09:52:23;;;;;;;10.32;2.72;;;;;;;43.97;14.90;97349.81;4933059;28;20047;-84
2021/04/30 09:54:49;;;;;;;14.75;2.38;;;;;;;44.00;15.99;97342.69;4937215;28;20129;-84
2021/04/30 09:57:17;;;;;;;10.05;2.83;;;;;;;42.61;14.30;97310.03;4934408;28;20046;-84
2021/04/30 10:00:04;;;;;;;8.52;2.70;;;;;;;43.10;15.24;97332.84;4943426;28;20054;-83
2021/04/30 10:02:32;;;;;;;11.45;3.38;;;;;;;40.68;15.53;97323.78;4965332;28;20565;-83
2021/04/30 10:05:10;;;;;;;13.85;2.55;;;;;;;41.26;15.84;97307.81;4926533;28;20041;-84
2021/04/30 10:07:54;;;;;;;17.35;7.10;;;;;;;40.80;15.99;97299.81;4946697;29;20057;-83
2021/04/30 10:10:24;;;;;;;41.13;13.88;;;;;;;40.97;16.82;97300.25;4951564;28;20157;-83
2021/04/30 10:12:57;;;;;;;11.90;3.83;;;;;;;40.30;17.03;97303.81;4937938;28;20042;-83
2021/04/30 10:15:23;;;;;;;15.93;3.00;;;;;;;41.03;17.05;97282.22;4951208;28;20423;-84
2021/04/30 10:17:56;;;;;;;13.63;3.00;;;;;;;40.26;16.55;97288.72;4938871;28;20037;-84
2021/04/30 10:20:23;;;;;;;12.38;2.70;;;;;;;39.98;18.01;97264.19;4954478;28;20451;-83
2021/04/30 10:22:49;;;;;;;15.00;2.60;;;;;;;39.68;17.77;97255.97;4939133;28;20098;-82
2021/04/30 10:25:25;;;;;;;11.43;1.92;;;;;;;38.87;17.71;97262.63;4955118;28;20577;-82
2021/04/30 10:27:53;;;;;;;11.40;2.33;;;;;;;38.81;18.05;97271.31;4931629;28;20030;-83
2021/04/30 10:30:38;;;;;;;18.10;3.20;;;;;;;39.25;18.05;97291.13;4939310;28;20038;-83
2021/04/30 10:33:17;;;;;;;5.03;2.35;;;;;;;40.58;15.95;97279.78;4955158;28;20033;-84
2021/04/30 10:36:07;;;;;;;7.15;2.45;;;;;;;39.87;17.82;97274.63;4933537;29;20563;-83
2021/04/30 10:39:21;;;;;;;21.83;3.50;;;;;;;40.19;17.08;97276.13;4944413;28;20026;-83
2021/04/30 10:41:49;;;;;;;7.35;2.03;;;;;;;40.14;16.39;97249.00;4948303;28;20074;-83
2021/04/30 10:44:28;;;;;;;6.88;1.80;;;;;;;40.75;15.28;97263.38;4923281;28;20126;-83
2021/04/30 10:47:24;;;;;;;8.15;2.00;;;;;;;41.33;15.94;97252.13;4937291;28;20028;-81
2021/04/30 10:50:14;;;;;;;11.45;3.40;;;;;;;42.71;15.17;97250.75;4947280;28;20038;-82
2021/04/30 10:52:40;;;;;;;9.97;3.40;;;;;;;43.37;15.44;97252.38;4926442;29;20118;-82
2021/04/30 10:55:16;;;;;;;12.05;2.67;;;;;;;43.27;15.11;97235.63;4920009;28;20031;-82
2021/04/30 10:57:57;;;;;;;13.32;2.67;;;;;;;44.06;15.27;97243.53;4935092;28;20118;-83
2021/04/30 11:00:40;;;;;;;12.10;2.90;;;;;;;45.11;13.21;97233.59;4955267;28;20029;-83
2021/04/30 11:03:23;;;;;;;18.17;3.50;;;;;;;44.45;14.27;97242.09;4924423;28;20102;-82
2021/04/30 11:06:05;;;;;;;9.02;2.50;;;;;;;42.62;15.19;97242.19;4916270;29;20055;-84
2021/04/30 11:08:49;;;;;;;10.75;2.15;;;;;;;42.50;15.18;97244.59;4919937;29;20038;-83
2021/04/30 11:11:30;;;;;;;11.48;2.20;;;;;;;43.41;14.44;97253.44;4935547;29;20031;-84
2021/04/30 11:14:27;;;;;;;12.57;2.55;;;;;;;44.18;14.54;97251.47;4952866;29;20061;-82
2021/04/30 11:16:54;;;;;;;14.90;2.85;;;;;;;45.69;14.29;97243.84;4938719;28;20093;-83
2021/04/30 11:19:21;;;;;;;14.07;3.08;;;;;;;44.80;14.23;97241.19;4933353;28;20031;-83
2021/04/30 11:21:51;;;;;;;21.65;4.05;;;;;;;43.61;15.41;97233.25;4931673;29;20027;-82
2021/04/30 11:24:29;;;;;;;15.82;5.22;;;;;;;42.58;16.08;97229.00;4919505;28;20491;-83
2021/04/30 11:27:19;;;;;;;13.57;2.70;;;;;;;40.27;17.43;97213.84;4951372;28;20035;-82
2021/04/30 11:29:47;;;;;;;11.47;3.70;;;;;;;40.75;17.14;97210.06;4947580;28;20031;-82